Time;durP1;ratioP1;P1;durP2;ratioP2;P2;SDS_P1;SDS_P2;PMS_P1;PMS_P2;Temp;Humidity;BMP_temperature;BMP_pressure;BME280_temperature;BME280_humidity;BME280_pressure;Samples;Min_cycle;Max_cycle;Signal;HPM_P1;HPM_P2
2022/06/11 00:00:29;;;;;;;0.47;0.30;;;21.40;79.50;;;;;;5044998;28;20123;-72
2022/06/11 00:02:57;;;;;;;1.17;0.30;;;21.50;77.60;;;;;;5032619;28;20077;-74
2022/06/11 00:05:25;;;;;;;0.70;0.10;;;21.30;75.80;;;;;;5043498;28;20118;-73
2022/06/11 00:07:52;;;;;;;1.13;0.20;;;21.60;76.20;;;;;;5048591;28;20081;-73
2022/06/11 00:10:19;;;;;;;0.85;0.20;;;21.80;77.00;;;;;;5048909;28;20494;-72
2022/06/11 00:12:47;;;;;;;0.10;0.10;;;22.00;74.30;;;;;;5041076;28;20029;-73
2022/06/11 00:15:15;;;;;;;0.45;0.20;;;22.00;73.70;;;;;;5032701;28;20484;-73
2022/06/11 00:17:43;;;;;;;0.55;0.20;;;22.40;73.60;;;;;;5030912;28;20025;-73
2022/06/11 00:20:10;;;;;;;0.30;0.20;;;22.50;75.30;;;;;;5045203;28;20486;-73
2022/06/11 00:22:39;;;;;;;0.75;0.20;;;22.50;76.60;;;;;;5038138;28;20045;-73
2022/06/11 00:25:07;;;;;;;1.08;0.25;;;22.40;73.00;;;;;;5046345;28;20025;-73
2022/06/11 00:27:35;;;;;;;0.57;0.40;;;22.50;73.00;;;;;;5033552;28;20103;-74
2022/06/11 00:30:03;;;;;;;0.50;0.30;;;22.70;72.90;;;;;;5043444;28;20033;-72
2022/06/11 00:32:31;;;;;;;3.03;1.55;;;22.70;71.80;;;;;;5042761;28;20463;-73
2022/06/11 00:35:02;;;;;;;2.15;1.05;;;22.80;73.10;;;;;;5048861;28;20110;-73
2022/06/11 00:37:30;;;;;;;2.38;0.68;;;22.80;72.90;;;;;;5035784;28;21609;-74
2022/06/11 00:39:58;;;;;;;0.93;0.30;;;23.20;71.80;;;;;;5030909;28;20348;-73
2022/06/11 00:42:29;;;;;;;2.47;0.70;;;23.10;71.40;;;;;;5041884;28;20464;-74
2022/06/11 00:45:16;;;;;;;1.15;0.35;;;23.10;71.60;;;;;;5034432;28;20423;-72
2022/06/11 00:47:46;;;;;;;0.80;0.43;;;23.40;70.30;;;;;;5047616;28;20033;-72
2022/06/11 00:50:25;;;;;;;1.15;0.60;;;23.20;70.50;;;;;;5038487;28;20137;-72
2022/06/11 00:52:55;;;;;;;0.60;0.40;;;23.00;71.30;;;;;;5035827;28;20083;-73
2022/06/11 00:55:31;;;;;;;1.02;0.30;;;23.20;71.20;;;;;;5031684;28;20030;-73
2022/06/11 00:58:02;;;;;;;;;;;23.50;71.40;;;;;;5031263;28;20106;-73
2022/06/11 01:00:48;;;;;;;0.38;0.30;;;23.90;70.60;;;;;;5033543;28;19913;-74
2022/06/11 01:03:23;;;;;;;1.77;0.55;;;23.90;69.70;;;;;;5026327;28;20377;-74
2022/06/11 01:06:07;;;;;;;0.43;0.30;;;24.00;73.40;;;;;;5032222;28;20044;-73
2022/06/11 01:08:46;;;;;;;1.70;0.40;;;24.20;69.80;;;;;;5030314;28;20033;-73
2022/06/11 01:11:34;;;;;;;2.35;0.50;;;24.40;69.10;;;;;;5034596;28;20033;-73
2022/06/11 01:14:20;;;;;;;1.30;0.38;;;24.70;70.30;;;;;;5039928;28;20037;-73
2022/06/11 01:17:06;;;;;;;1.13;0.57;;;25.00;68.30;;;;;;5043966;28;20036;-73
2022/06/11 01:19:43;;;;;;;0.75;0.50;;;24.60;69.60;;;;;;5047998;28;20025;-72
2022/06/11 01:22:28;;;;;;;0.60;0.28;;;24.90;70.60;;;;;;5041018;28;20033;-74
2022/06/11 01:25:06;;;;;;;0.45;0.20;;;25.00;69.10;;;;;;5035547;28;20026;-75
2022/06/11 01:27:33;;;;;;;1.02;0.40;;;25.30;70.40;;;;;;5035886;28;20075;-80
2022/06/11 01:30:25;;;;;;;5.28;0.40;;;25.50;68.20;;;;;;5038078;28;20032;-80
2022/06/11 01:33:23;;;;;;;1.15;0.50;;;25.70;70.20;;;;;;5040921;28;20034;-77
2022/06/11 01:36:10;;;;;;;1.20;0.43;;;25.70;69.60;;;;;;5038356;28;20112;-75
2022/06/11 01:38:46;;;;;;;1.05;0.47;;;25.70;69.30;;;;;;5034929;28;20859;-75
2022/06/11 01:41:31;;;;;;;0.70;0.40;;;26.10;67.50;;;;;;5039926;28;20034;-76
2022/06/11 01:44:04;;;;;;;2.05;0.70;;;25.60;66.20;;;;;;5045660;28;20037;-80
2022/06/11 01:46:38;;;;;;;3.83;0.52;;;24.80;68.20;;;;;;5045935;28;20040;-75
2022/06/11 01:49:27;;;;;;;2.13;0.80;;;25.00;68.70;;;;;;5039150;28;20535;-76
2022/06/11 01:52:00;;;;;;;3.72;0.75;;;25.20;67.90;;;;;;5049777;28;20029;-77
2022/06/11 01:54:45;;;;;;;1.67;0.60;;;25.50;68.20;;;;;;5037196;28;20143;-74
2022/06/11 01:57:25;;;;;;;0.30;0.30;;;25.70;67.60;;;;;;5038166;28;20033;-79
2022/06/11 02:00:20;;;;;;;2.80;0.20;;;25.80;65.70;;;;;;5049204;28;20111;-75
2022/06/11 02:03:00;;;;;;;0.30;0.20;;;26.20;65.50;;;;;;5042637;28;20044;-75
2022/06/11 02:05:33;;;;;;;2.83;0.40;;;26.40;64.80;;;;;;5047355;28;20025;-75
2022/06/11 02:08:01;;;;;;;0.63;0.20;;;26.60;65.80;;;;;;5037585;28;20040;-77
2022/06/11 02:10:47;;;;;;;0.00;0.00;;;26.70;65.30;;;;;;5034782;28;20033;-74
2022/06/11 02:13:39;;;;;;;0.17;0.08;;;26.70;64.70;;;;;;5042765;28;20115;-74
2022/06/11 02:16:13;;;;;;;0.40;0.10;;;26.50;64.50;;;;;;5032855;28;20131;-75
2022/06/11 02:18:42;;;;;;;0.10;0.10;;;26.70;64.70;;;;;;5036377;28;20036;-73
2022/06/11 02:21:13;;;;;;;0.65;0.22;;;26.80;65.20;;;;;;5038143;28;20107;-74
2022/06/11 02:23:49;;;;;;;0.47;0.10;;;26.60;63.70;;;;;;5031133;28;20182;-75
2022/06/11 02:26:32;;;;;;;0.00;0.00;;;26.00;61.90;;;;;;5035018;28;20459;-76
2022/06/11 02:29:01;;;;;;;1.15;0.13;;;25.40;62.60;;;;;;5037378;28;20116;-74
2022/06/11 02:31:33;;;;;;;0.28;0.00;;;25.40;62.90;;;;;;5034377;28;20025;-73
2022/06/11 02:34:06;;;;;;;0.00;0.00;;;25.10;62.50;;;;;;5032560;28;20037;-76
2022/06/11 02:37:03;;;;;;;0.47;0.10;;;25.30;62.30;;;;;;5027467;28;20029;-76
2022/06/11 02:39:35;;;;;;;1.40;0.00;;;25.40;64.10;;;;;;5035920;28;20059;-76
2022/06/11 02:42:05;;;;;;;0.45;0.00;;;25.60;61.70;;;;;;5035793;28;20033;-74
2022/06/11 02:44:33;;;;;;;0.70;0.10;;;25.10;62.60;;;;;;5034044;28;20041;-74
2022/06/11 02:47:01;;;;;;;0.50;0.10;;;24.80;62.10;;;;;;5046042;28;20099;-73
2022/06/11 02:49:36;;;;;;;0.10;0.10;;;24.30;61.70;;;;;;5035739;28;20450;-75
2022/06/11 02:52:13;;;;;;;0.22;0.10;;;23.80;62.90;;;;;;5031872;28;20059;-74
2022/06/11 02:54:43;;;;;;;0.85;0.20;;;23.50;62.60;;;;;;5033275;28;20159;-73
2022/06/11 02:57:14;;;;;;;0.30;0.20;;;23.00;64.80;;;;;;5033463;28;20060;-75
2022/06/11 02:59:43;;;;;;;0.38;0.30;;;22.40;64.30;;;;;;5038787;28;20021;-71
2022/06/11 03:02:11;;;;;;;0.63;0.10;;;22.00;64.20;;;;;;5041819;28;20039;-75
2022/06/11 03:04:39;;;;;;;0.28;0.10;;;21.90;65.60;;;;;;5040457;28;20025;-74
2022/06/11 03:07:10;;;;;;;0.60;0.10;;;21.60;66.20;;;;;;5039183;28;20033;-78
2022/06/11 03:09:40;;;;;;;0.95;0.30;;;21.50;65.70;;;;;;5043717;28;20032;-78
2022/06/11 03:12:10;;;;;;;3.60;0.40;;;21.50;65.60;;;;;;5029370;28;20025;-76
2022/06/11 03:14:37;;;;;;;0.32;0.13;;;21.40;66.40;;;;;;5029759;28;20116;-75
2022/06/11 03:17:05;;;;;;;0.30;0.10;;;21.30;65.60;;;;;;5031768;28;20033;-83
2022/06/11 03:19:33;;;;;;;0.60;0.10;;;21.20;65.60;;;;;;5035502;28;20460;-80
2022/06/11 03:22:00;;;;;;;1.08;0.20;;;20.90;66.80;;;;;;5048385;28;20503;-75
2022/06/11 03:24:28;;;;;;;0.57;0.10;;;20.70;66.30;;;;;;5049446;28;20036;-78
2022/06/11 03:26:56;;;;;;;0.65;0.10;;;20.60;67.00;;;;;;5041697;28;20166;-78
2022/06/11 03:29:25;;;;;;;0.52;0.20;;;20.40;67.00;;;;;;5041323;28;20040;-75
2022/06/11 03:31:53;;;;;;;0.25;0.20;;;20.10;67.10;;;;;;5047001;28;20103;-81
2022/06/11 03:34:21;;;;;;;0.70;0.20;;;19.70;68.40;;;;;;5042801;28;20021;-76
2022/06/11 03:36:52;;;;;;;0.45;0.10;;;19.40;69.10;;;;;;5034951;28;20109;-80
2022/06/11 03:39:20;;;;;;;0.75;0.15;;;19.10;69.00;;;;;;5031069;28;20063;-81
2022/06/11 03:41:48;;;;;;;1.90;0.20;;;18.80;69.20;;;;;;5041294;28;20383;-75
2022/06/11 03:44:16;;;;;;;0.20;0.10;;;18.00;68.80;;;;;;5045774;28;20025;-78
2022/06/11 03:46:44;;;;;;;0.17;0.17;;;17.40;70.60;;;;;;5049810;28;20480;-74
2022/06/11 03:49:12;;;;;;;0.43;0.10;;;17.20;71.60;;;;;;5042679;28;20052;-75
2022/06/11 03:51:40;;;;;;;0.70;0.10;;;17.10;71.30;;;;;;5038199;28;20500;-77
2022/06/11 03:54:07;;;;;;;1.17;0.35;;;17.00;71.20;;;;;;5030624;28;20092;-81
2022/06/11 03:56:36;;;;;;;0.50;0.20;;;17.00;72.50;;;;;;5032278;28;20135;-79
2022/06/11 03:59:04;;;;;;;2.28;0.20;;;17.00;72.90;;;;;;5030416;28;20032;-74
2022/06/11 04:01:32;;;;;;;0.40;0.15;;;17.00;72.60;;;;;;5034399;28;20036;-76
2022/06/11 04:04:02;;;;;;;0.95;0.20;;;17.00;70.90;;;;;;5029388;28;20078;-79
2022/06/11 04:06:33;;;;;;;1.13;0.20;;;17.00;72.10;;;;;;5037126;28;20032;-80
2022/06/11 04:09:02;;;;;;;1.20;0.30;;;17.00;71.90;;;;;;5047857;28;20039;-76
2022/06/11 04:11:29;;;;;;;0.70;0.10;;;17.10;71.20;;;;;;5036851;28;20038;-79
2022/06/11 04:13:57;;;;;;;0.98;0.22;;;17.10;71.40;;;;;;5036869;28;20063;-80
2022/06/11 04:16:50;;;;;;;0.55;0.55;;;17.20;71.00;;;;;;5049628;28;20100;-75
2022/06/11 04:19:21;;;;;;;0.63;0.10;;;17.20;70.90;;;;;;5041668;28;21114;-75
2022/06/11 04:21:50;;;;;;;0.82;0.10;;;17.20;70.90;;;;;;5030123;28;20033;-76
2022/06/11 04:24:18;;;;;;;1.85;0.30;;;17.20;70.70;;;;;;5029935;28;20451;-77
2022/06/11 04:26:48;;;;;;;0.17;0.10;;;17.20;70.70;;;;;;5030643;28;20552;-78
2022/06/11 04:29:18;;;;;;;0.20;0.10;;;17.30;70.80;;;;;;5037488;28;20032;-77
2022/06/11 04:31:48;;;;;;;1.35;0.13;;;17.20;70.20;;;;;;5049437;28;20098;-81
2022/06/11 04:34:17;;;;;;;0.98;0.38;;;17.10;70.50;;;;;;5049650;28;20154;-78
2022/06/11 04:36:46;;;;;;;0.80;0.10;;;17.00;70.70;;;;;;5049125;28;20029;-78
2022/06/11 04:39:16;;;;;;;0.10;0.10;;;16.80;70.60;;;;;;5048145;28;20122;-76
2022/06/11 04:41:44;;;;;;;1.60;0.30;;;16.70;70.50;;;;;;5036529;28;20025;-72
2022/06/11 04:44:12;;;;;;;1.30;0.20;;;16.60;70.70;;;;;;5044618;28;20071;-75
2022/06/11 04:46:39;;;;;;;0.52;0.10;;;16.50;70.50;;;;;;5051013;28;20074;-77
2022/06/11 04:49:07;;;;;;;0.75;0.13;;;16.40;70.80;;;;;;5048429;28;20147;-78
2022/06/11 04:51:34;;;;;;;0.20;0.10;;;16.30;71.10;;;;;;5032080;28;20094;-77
2022/06/11 04:54:02;;;;;;;0.95;0.47;;;16.30;70.80;;;;;;5036369;28;20033;-85
2022/06/11 04:56:30;;;;;;;1.95;0.50;;;16.20;71.50;;;;;;5050284;28;20479;-82
2022/06/11 04:58:58;;;;;;;0.30;0.30;;;16.30;71.80;;;;;;5037274;28;20025;-80
2022/06/11 05:01:26;;;;;;;1.95;0.60;;;16.20;72.30;;;;;;5030443;28;20429;-78
2022/06/11 05:03:55;;;;;;;1.98;0.20;;;16.20;72.50;;;;;;5035264;28;20040;-77
2022/06/11 05:06:32;;;;;;;0.77;0.10;;;16.20;71.60;;;;;;5050368;28;20025;-75
2022/06/11 05:09:00;;;;;;;0.77;0.20;;;16.20;72.30;;;;;;5041603;28;20033;-78
2022/06/11 05:11:27;;;;;;;1.27;0.15;;;16.10;72.10;;;;;;5042645;28;20048;-78
2022/06/11 05:13:54;;;;;;;0.95;0.20;;;16.10;72.10;;;;;;5044171;28;20029;-77
2022/06/11 05:16:22;;;;;;;4.43;0.40;;;16.10;71.80;;;;;;5049420;28;20459;-75
2022/06/11 05:18:50;;;;;;;0.40;0.30;;;16.10;71.50;;;;;;5047224;28;20087;-77
2022/06/11 05:21:18;;;;;;;0.10;0.10;;;16.10;72.20;;;;;;5049812;28;20021;-79
2022/06/11 05:23:46;;;;;;;0.57;0.43;;;16.00;72.60;;;;;;5046860;28;20044;-82
2022/06/11 05:26:24;;;;;;;0.40;0.10;;;16.00;72.50;;;;;;5048715;28;20071;-81
2022/06/11 05:28:51;;;;;;;0.85;0.28;;;16.00;72.10;;;;;;5045969;28;20483;-80
2022/06/11 05:31:19;;;;;;;1.50;0.20;;;16.00;72.10;;;;;;5040000;28;20444;-76
2022/06/11 05:33:46;;;;;;;0.60;0.30;;;16.00;72.70;;;;;;5040728;28;20032;-78
2022/06/11 05:36:16;;;;;;;0.32;0.20;;;15.90;72.70;;;;;;5048168;28;20036;-76
2022/06/11 05:38:44;;;;;;;1.10;0.30;;;15.90;72.70;;;;;;5031654;28;20029;-74
2022/06/11 05:41:11;;;;;;;0.30;0.20;;;15.80;72.80;;;;;;5040578;28;20086;-75
2022/06/11 05:43:39;;;;;;;1.45;0.30;;;15.90;72.70;;;;;;5047265;28;20037;-76
2022/06/11 05:46:16;;;;;;;0.15;0.10;;;15.90;73.30;;;;;;5033114;28;20034;-75
2022/06/11 05:48:50;;;;;;;0.82;0.20;;;15.80;73.80;;;;;;5032707;28;20060;-76
2022/06/11 05:51:22;;;;;;;0.95;0.35;;;15.80;74.10;;;;;;5033295;28;20029;-74
2022/06/11 05:53:54;;;;;;;0.93;0.30;;;15.80;74.60;;;;;;5029358;28;20056;-76
2022/06/11 05:56:21;;;;;;;0.32;0.10;;;15.70;74.30;;;;;;5030163;28;20029;-77
2022/06/11 05:58:55;;;;;;;1.23;0.13;;;15.70;74.20;;;;;;5037447;28;20025;-77
2022/06/11 06:01:26;;;;;;;1.20;0.20;;;15.70;74.60;;;;;;5029949;28;20053;-77
2022/06/11 06:03:54;;;;;;;0.22;0.20;;;15.70;74.80;;;;;;5032771;28;20064;-77
2022/06/11 06:06:21;;;;;;;1.23;0.25;;;15.80;74.50;;;;;;5041727;28;20463;-77
2022/06/11 06:08:48;;;;;;;1.33;0.38;;;15.80;74.60;;;;;;5034015;28;20119;-74
2022/06/11 06:11:16;;;;;;;2.10;0.40;;;15.90;74.40;;;;;;5049589;28;20371;-78
2022/06/11 06:13:46;;;;;;;2.63;0.85;;;16.00;74.30;;;;;;5046438;28;20053;-76
2022/06/11 06:16:32;;;;;;;0.52;0.15;;;16.00;74.50;;;;;;5042634;28;20889;-75
2022/06/11 06:19:01;;;;;;;0.25;0.10;;;16.10;74.30;;;;;;5033816;28;20056;-77
2022/06/11 06:21:32;;;;;;;0.80;0.32;;;16.10;74.40;;;;;;5050041;28;20483;-76
2022/06/11 06:24:00;;;;;;;2.47;1.00;;;16.10;74.60;;;;;;5048168;28;20136;-75
2022/06/11 06:26:28;;;;;;;4.15;0.93;;;16.00;75.40;;;;;;5033635;28;20025;-76
2022/06/11 06:28:55;;;;;;;2.00;0.93;;;15.90;74.80;;;;;;5046528;28;20035;-77
2022/06/11 06:31:23;;;;;;;1.77;0.70;;;15.80;75.20;;;;;;5053197;28;20021;-77
2022/06/11 06:33:51;;;;;;;1.20;0.30;;;15.60;75.50;;;;;;5049513;28;20032;-78
2022/06/11 06:36:19;;;;;;;3.00;0.65;;;15.40;76.20;;;;;;5050209;28;20479;-73
2022/06/11 06:38:47;;;;;;;0.95;0.55;;;15.10;76.10;;;;;;5050051;28;20112;-76
2022/06/11 06:41:15;;;;;;;1.60;0.50;;;14.90;76.60;;;;;;5043527;28;20025;-75
2022/06/11 06:43:42;;;;;;;1.13;0.55;;;14.80;76.60;;;;;;5043785;28;20037;-72
2022/06/11 06:46:11;;;;;;;1.23;0.30;;;14.70;76.50;;;;;;5053339;28;20075;-75
2022/06/11 06:48:38;;;;;;;0.70;0.30;;;14.60;76.50;;;;;;5050693;28;20037;-76
2022/06/11 06:51:07;;;;;;;1.13;0.63;;;14.40;76.60;;;;;;5044187;28;20037;-74
2022/06/11 06:53:37;;;;;;;2.17;0.35;;;14.30;77.00;;;;;;5035290;28;20039;-75
2022/06/11 06:56:05;;;;;;;1.08;0.30;;;14.20;77.00;;;;;;5052947;28;20115;-76
2022/06/11 06:58:33;;;;;;;2.15;0.60;;;14.10;77.30;;;;;;5050486;28;20029;-76
2022/06/11 07:01:02;;;;;;;0.20;0.20;;;13.90;77.50;;;;;;5051319;28;20384;-74
2022/06/11 07:03:30;;;;;;;1.27;0.30;;;13.90;77.80;;;;;;5034638;28;20174;-76
2022/06/11 07:05:57;;;;;;;0.85;0.32;;;13.80;78.30;;;;;;5052428;28;20532;-78
2022/06/11 07:08:24;;;;;;;0.75;0.40;;;13.70;78.30;;;;;;5049439;28;20037;-76
2022/06/11 07:10:54;;;;;;;1.08;0.40;;;13.60;78.80;;;;;;5049889;28;20498;-76
2022/06/11 07:13:22;;;;;;;1.58;0.60;;;13.40;79.00;;;;;;5051093;28;20021;-77
2022/06/11 07:15:54;;;;;;;3.10;0.70;;;13.30;79.10;;;;;;5049729;28;20025;-79
2022/06/11 07:18:56;;;;;;;1.52;0.57;;;13.30;79.30;;;;;;5048860;28;20365;-77
2022/06/11 07:21:29;;;;;;;0.73;0.35;;;13.30;79.50;;;;;;5033934;28;20112;-76
2022/06/11 07:24:01;;;;;;;1.45;0.73;;;13.20;80.00;;;;;;5050610;28;20048;-75
2022/06/11 07:26:34;;;;;;;1.67;0.68;;;13.10;80.00;;;;;;5049482;28;20029;-75
2022/06/11 07:29:23;;;;;;;0.85;0.35;;;13.10;80.20;;;;;;5050243;28;20561;-76
2022/06/11 07:31:55;;;;;;;1.27;0.52;;;13.00;80.50;;;;;;5050475;28;20017;-76
2022/06/11 07:34:22;;;;;;;1.23;0.40;;;12.90;80.80;;;;;;5047861;28;20017;-76
2022/06/11 07:36:49;;;;;;;1.58;0.55;;;12.80;81.30;;;;;;5038545;28;20064;-75
2022/06/11 07:39:17;;;;;;;3.35;0.63;;;12.80;81.40;;;;;;5037574;28;20032;-76
2022/06/11 07:41:44;;;;;;;0.82;0.68;;;12.70;81.50;;;;;;5051854;28;20025;-77
2022/06/11 07:44:12;;;;;;;1.38;0.43;;;12.60;81.70;;;;;;5040012;28;20115;-76
2022/06/11 07:46:39;;;;;;;1.65;0.40;;;12.60;81.70;;;;;;5050346;28;20033;-76
2022/06/11 07:49:06;;;;;;;0.60;0.30;;;12.50;81.70;;;;;;5044679;28;20059;-74
2022/06/11 07:51:34;;;;;;;0.50;0.35;;;12.50;81.70;;;;;;5049539;28;20692;-77
2022/06/11 07:54:01;;;;;;;1.27;0.32;;;12.40;81.70;;;;;;5050134;28;20120;-80
2022/06/11 07:56:28;;;;;;;0.75;0.40;;;12.40;81.80;;;;;;5050817;28;20479;-78
2022/06/11 07:58:56;;;;;;;0.60;0.30;;;12.40;81.80;;;;;;5050043;28;20048;-78
2022/06/11 08:01:23;;;;;;;2.05;0.70;;;12.30;81.90;;;;;;5051940;28;20095;-75
2022/06/11 08:03:50;;;;;;;2.88;0.70;;;12.30;81.60;;;;;;5049232;28;20147;-80
2022/06/11 08:06:18;;;;;;;2.42;0.60;;;12.30;82.10;;;;;;5043437;28;20049;-80
2022/06/11 08:08:46;;;;;;;0.80;0.38;;;12.30;81.90;;;;;;5035507;28;20521;-77
2022/06/11 08:11:14;;;;;;;0.90;0.40;;;12.20;82.20;;;;;;5050196;28;20029;-81
2022/06/11 08:13:41;;;;;;;1.58;0.38;;;12.20;82.20;;;;;;5050151;28;20518;-78
2022/06/11 08:16:10;;;;;;;2.85;0.60;;;12.20;82.20;;;;;;5051770;28;20529;-75
2022/06/11 08:18:39;;;;;;;0.40;0.20;;;12.10;82.40;;;;;;5045694;28;20678;-79
2022/06/11 08:21:06;;;;;;;0.63;0.30;;;12.00;82.70;;;;;;5048391;28;20128;-77
2022/06/11 08:23:33;;;;;;;1.58;0.43;;;11.90;82.80;;;;;;5043124;28;20056;-79
2022/06/11 08:26:01;;;;;;;2.47;0.55;;;11.90;83.00;;;;;;5051270;28;20029;-78
2022/06/11 08:28:28;;;;;;;0.52;0.20;;;11.80;83.20;;;;;;5048572;28;20043;-76
2022/06/11 08:30:55;;;;;;;1.27;0.40;;;11.80;82.70;;;;;;5051339;28;20025;-76
2022/06/11 08:33:23;;;;;;;2.90;0.30;;;11.80;82.80;;;;;;5048552;28;20107;-77
2022/06/11 08:35:50;;;;;;;1.98;0.35;;;11.80;82.90;;;;;;5038431;28;20032;-77
2022/06/11 08:38:17;;;;;;;1.15;0.25;;;11.80;83.00;;;;;;5048477;28;20029;-76
2022/06/11 08:40:48;;;;;;;1.70;0.55;;;11.80;82.90;;;;;;5039454;28;20463;-76
2022/06/11 08:43:20;;;;;;;2.58;0.60;;;11.80;82.90;;;;;;5048416;28;20506;-78
2022/06/11 08:46:00;;;;;;;1.05;0.20;;;11.80;83.30;;;;;;5030728;28;20053;-76
2022/06/11 08:48:47;;;;;;;1.25;0.82;;;11.70;83.40;;;;;;5032650;28;20491;-75
2022/06/11 08:51:23;;;;;;;1.25;0.40;;;11.70;83.30;;;;;;5051474;28;20029;-78
2022/06/11 08:53:51;;;;;;;;;;;11.70;83.40;;;;;;5048774;28;20025;-77
2022/06/11 08:56:53;;;;;;;1.45;0.73;;;11.60;83.50;;;;;;5038056;28;19909;-79
2022/06/11 08:59:38;;;;;;;0.98;0.40;;;11.60;83.50;;;;;;5042268;28;20037;-77
2022/06/11 09:02:42;;;;;;;2.15;0.40;;;11.60;83.50;;;;;;5031796;28;20025;-78
2022/06/11 09:05:33;;;;;;;2.85;0.30;;;11.60;83.60;;;;;;5046117;28;20025;-76
2022/06/11 09:08:33;;;;;;;0.98;0.70;;;11.50;83.70;;;;;;5050105;28;20036;-79
2022/06/11 09:11:20;;;;;;;2.45;0.43;;;11.50;83.80;;;;;;5031987;28;20044;-79
2022/06/11 09:13:59;;;;;;;3.80;0.47;;;11.50;84.20;;;;;;5042775;28;20475;-78
2022/06/11 09:16:35;;;;;;;0.90;0.40;;;11.40;84.30;;;;;;5050845;28;20051;-78
2022/06/11 09:19:39;;;;;;;0.77;0.32;;;11.40;84.40;;;;;;5045778;28;20025;-78
2022/06/11 09:22:14;;;;;;;1.15;0.30;;;11.40;84.60;;;;;;5049985;28;20412;-79
2022/06/11 09:24:50;;;;;;;1.08;0.50;;;11.40;84.60;;;;;;5044732;28;20040;-78
2022/06/11 09:27:50;;;;;;;2.22;0.43;;;11.40;85.00;;;;;;5050837;28;20333;-77
2022/06/11 09:30:19;;;;;;;1.20;0.35;;;11.30;85.20;;;;;;5044972;28;20036;-77
2022/06/11 09:32:59;;;;;;;2.13;0.75;;;11.30;85.20;;;;;;5050362;28;20037;-79
2022/06/11 09:35:35;;;;;;;2.42;1.08;;;11.30;85.40;;;;;;5031706;28;20029;-78
2022/06/11 09:38:12;;;;;;;;;;;11.30;85.60;;;;;;5032485;28;20511;-77
2022/06/11 09:40:50;;;;;;;1.75;0.60;;;11.20;85.50;;;;;;5048648;28;19909;-79
2022/06/11 09:43:49;;;;;;;2.13;0.90;;;11.20;85.70;;;;;;5047398;28;20119;-79
2022/06/11 09:46:24;;;;;;;3.03;0.47;;;11.20;85.70;;;;;;5030378;28;20079;-78
2022/06/11 09:49:17;;;;;;;2.13;0.40;;;11.20;85.70;;;;;;5045974;28;20049;-78
2022/06/11 09:51:53;;;;;;;4.88;0.60;;;11.20;85.90;;;;;;5043856;28;20291;-79
2022/06/11 09:54:39;;;;;;;2.72;1.23;;;11.20;85.90;;;;;;5037703;28;20101;-78
2022/06/11 09:57:29;;;;;;;7.67;0.73;;;11.10;86.10;;;;;;5043090;28;20106;-77
2022/06/11 10:00:07;;;;;;;1.65;0.40;;;11.10;86.60;;;;;;5045837;28;20140;-75
2022/06/11 10:02:58;;;;;;;1.25;0.32;;;11.10;86.00;;;;;;5054042;28;20024;-78
2022/06/11 10:05:45;;;;;;;0.93;0.40;;;11.10;86.10;;;;;;5051564;28;20065;-77
2022/06/11 10:08:50;;;;;;;1.63;1.00;;;11.10;85.80;;;;;;5052730;28;20028;-77
2022/06/11 10:11:58;;;;;;;0.82;0.30;;;11.00;85.80;;;;;;5037454;28;20120;-77
2022/06/11 10:14:44;;;;;;;1.75;0.30;;;11.00;85.90;;;;;;5039023;28;20022;-77
2022/06/11 10:17:28;;;;;;;2.33;0.28;;;11.00;86.20;;;;;;5033960;28;20038;-77
2022/06/11 10:20:10;;;;;;;2.50;0.30;;;10.90;86.30;;;;;;5044357;28;20475;-75
2022/06/11 10:22:45;;;;;;;2.03;0.50;;;10.90;86.30;;;;;;5035117;28;20029;-77
2022/06/11 10:25:19;;;;;;;0.77;0.50;;;10.90;86.30;;;;;;5044114;28;20376;-79
2022/06/11 10:28:05;;;;;;;0.82;0.47;;;10.90;86.30;;;;;;5047912;28;20251;-76
2022/06/11 10:30:44;;;;;;;1.80;0.30;;;10.80;86.40;;;;;;5049285;28;20033;-79
2022/06/11 10:33:18;;;;;;;2.03;0.75;;;10.80;86.60;;;;;;5051657;28;20368;-77
2022/06/11 10:36:03;;;;;;;1.90;0.38;;;10.80;86.80;;;;;;5034198;28;20039;-77
2022/06/11 10:38:56;;;;;;;1.77;0.35;;;10.70;87.10;;;;;;5037555;28;20029;-78
2022/06/11 10:41:49;;;;;;;2.25;0.30;;;10.60;87.30;;;;;;5050528;28;20040;-76
2022/06/11 10:44:25;;;;;;;1.77;0.40;;;10.60;87.50;;;;;;5049702;28;20036;-77
2022/06/11 10:46:52;;;;;;;;;;;10.50;87.90;;;;;;5053184;28;20117;-77
2022/06/11 10:49:24;;;;;;;2.40;0.73;;;10.40;88.10;;;;;;5042961;28;19925;-75
2022/06/11 10:52:05;;;;;;;3.03;1.52;;;10.40;88.30;;;;;;5033364;28;20068;-78
2022/06/11 10:54:33;;;;;;;4.78;2.03;;;10.30;88.60;;;;;;5044422;28;20044;-78
2022/06/11 10:57:07;;;;;;;4.07;1.58;;;10.20;89.40;;;;;;5032858;28;20120;-79
2022/06/11 10:59:45;;;;;;;2.67;0.80;;;10.20;89.20;;;;;;5043407;28;20329;-76
2022/06/11 11:02:37;;;;;;;3.17;0.70;;;10.10;89.40;;;;;;5051098;28;20024;-77
2022/06/11 11:05:08;;;;;;;4.10;0.68;;;10.00;89.80;;;;;;5049235;28;20082;-78
2022/06/11 11:08:01;;;;;;;0.70;0.40;;;10.00;90.10;;;;;;5052583;28;20445;-76
2022/06/11 11:10:48;;;;;;;3.97;0.52;;;9.90;90.20;;;;;;5051188;28;20052;-77
2022/06/11 11:13:18;;;;;;;;;;;9.80;90.20;;;;;;5033538;28;20501;-76
2022/06/11 11:16:23;;;;;;;4.53;0.65;;;9.80;90.30;;;;;;5050904;28;19909;-78
2022/06/11 11:19:16;;;;;;;2.75;0.80;;;9.80;90.30;;;;;;5045239;28;20036;-76
2022/06/11 11:21:58;;;;;;;0.85;0.40;;;9.80;90.30;;;;;;5052552;28;20027;-79
2022/06/11 11:24:48;;;;;;;6.07;0.35;;;9.80;90.30;;;;;;5045994;28;20039;-79
2022/06/11 11:27:41;;;;;;;3.47;0.38;;;9.80;90.50;;;;;;5051549;28;20100;-74
2022/06/11 11:30:17;;;;;;;3.95;0.68;;;9.80;90.50;;;;;;5048874;28;20597;-78
2022/06/11 11:32:45;;;;;;;;;;;9.80;90.60;;;;;;5041018;28;20053;-78
2022/06/11 11:35:26;;;;;;;3.22;0.70;;;9.80;90.60;;;;;;5036225;28;19915;-77
2022/06/11 11:38:14;;;;;;;1.95;0.22;;;9.80;90.60;;;;;;5040468;28;20029;-76
2022/06/11 11:41:00;;;;;;;4.47;0.77;;;9.80;90.70;;;;;;5051688;28;20116;-77
2022/06/11 11:43:42;;;;;;;4.75;1.00;;;9.80;90.70;;;;;;5047044;28;20041;-75
2022/06/11 11:46:22;;;;;;;5.63;1.00;;;9.80;90.80;;;;;;5051277;28;20493;-78
2022/06/11 11:48:54;;;;;;;4.80;1.02;;;9.80;90.80;;;;;;5050323;28;20458;-77
2022/06/11 11:51:35;;;;;;;4.50;1.10;;;9.70;90.80;;;;;;5049760;28;20029;-78
2022/06/11 11:54:13;;;;;;;1.88;1.05;;;9.70;90.90;;;;;;5048235;28;20020;-77
2022/06/11 11:56:46;;;;;;;4.97;1.35;;;9.70;90.90;;;;;;5051827;28;20049;-77
2022/06/11 11:59:51;;;;;;;3.55;0.90;;;9.60;91.00;;;;;;5050506;28;20017;-78
2022/06/11 12:02:22;;;;;;;1.95;0.68;;;9.60;91.20;;;;;;5038555;28;20072;-76
2022/06/11 12:05:08;;;;;;;2.58;0.73;;;9.50;91.20;;;;;;5032511;28;20622;-78
2022/06/11 12:07:42;;;;;;;1.55;0.85;;;9.40;91.30;;;;;;5036819;28;20380;-75
2022/06/11 12:10:37;;;;;;;3.97;0.93;;;9.40;91.40;;;;;;5037679;28;20088;-79
2022/06/11 12:13:30;;;;;;;2.22;1.00;;;9.50;91.30;;;;;;5051720;28;20498;-78
2022/06/11 12:16:01;;;;;;;4.60;1.10;;;9.50;91.20;;;;;;5031751;28;20439;-78
2022/06/11 12:18:43;;;;;;;3.17;0.73;;;9.40;91.30;;;;;;5042118;28;20030;-74
2022/06/11 12:21:16;;;;;;;1.75;0.60;;;9.30;91.50;;;;;;5037694;28;20023;-77
2022/06/11 12:24:09;;;;;;;4.95;1.80;;;9.30;91.50;;;;;;5049586;28;20033;-77
2022/06/11 12:26:42;;;;;;;3.25;1.00;;;9.30;91.60;;;;;;5051334;28;20025;-79
2022/06/11 12:29:41;;;;;;;4.40;1.33;;;9.30;91.60;;;;;;5047720;28;20040;-77
2022/06/11 12:32:20;;;;;;;3.15;1.02;;;9.20;91.60;;;;;;5045790;28;20070;-79
2022/06/11 12:34:48;;;;;;;2.40;0.93;;;9.20;91.50;;;;;;5044768;28;20021;-79
2022/06/11 12:37:27;;;;;;;7.70;1.85;;;9.20;91.60;;;;;;5041227;28;20034;-77
2022/06/11 12:40:16;;;;;;;5.85;2.35;;;9.20;91.60;;;;;;5044121;28;20072;-77
2022/06/11 12:43:13;;;;;;;7.05;2.80;;;9.20;91.60;;;;;;5050528;28;20033;-76
2022/06/11 12:46:07;;;;;;;5.45;2.10;;;9.20;91.60;;;;;;5048022;28;20094;-75
2022/06/11 12:49:23;;;;;;;5.40;2.13;;;9.30;91.50;;;;;;5032928;28;20044;-77
2022/06/11 12:52:11;;;;;;;2.92;0.75;;;9.30;91.70;;;;;;5045794;28;20407;-75
2022/06/11 12:55:27;;;;;;;2.17;0.80;;;9.30;91.60;;;;;;5047823;28;20079;-76
2022/06/11 12:58:24;;;;;;;5.75;1.45;;;9.30;91.60;;;;;;5028871;28;20047;-77
2022/06/11 13:01:02;;;;;;;2.35;0.60;;;9.30;91.50;;;;;;5030963;28;20059;-79
2022/06/11 13:03:33;;;;;;;1.13;0.90;;;9.30;91.50;;;;;;5043026;28;20106;-79
2022/06/11 13:06:36;;;;;;;2.63;0.63;;;9.40;91.50;;;;;;5050068;28;20099;-78
2022/06/11 13:09:13;;;;;;;3.35;0.98;;;9.40;91.30;;;;;;5038829;28;20020;-77
2022/06/11 13:12:17;;;;;;;3.03;1.05;;;9.50;91.20;;;;;;5050117;28;20028;-78
2022/06/11 13:15:19;;;;;;;4.80;1.48;;;9.50;91.10;;;;;;5034726;28;20033;-76
2022/06/11 13:18:06;;;;;;;1.80;0.73;;;9.50;91.10;;;;;;5039756;28;20037;-76
2022/06/11 13:21:15;;;;;;;2.50;1.05;;;9.70;90.70;;;;;;5049814;28;20394;-76
2022/06/11 13:24:16;;;;;;;1.73;0.43;;;9.80;90.80;;;;;;5042509;28;20112;-78
2022/06/11 13:26:55;;;;;;;2.08;0.63;;;9.80;90.70;;;;;;5047778;28;20037;-75
2022/06/11 13:29:37;;;;;;;3.60;0.80;;;9.80;90.50;;;;;;5038719;28;20040;-74
2022/06/11 13:32:15;;;;;;;2.85;1.40;;;9.70;90.70;;;;;;5049389;28;20112;-78
2022/06/11 13:35:00;;;;;;;4.32;1.63;;;9.70;90.90;;;;;;5045970;28;20025;-79